CZFN

Tulita Airport

Tulita, Northwest Territories, Canada
METAR CZFN 212300Z 11008KT 20SM FEW200 09/M08 A3003 RMK CI1 9.4 / -6.2 / TR / LAST STFD OBS/NEXT 241500Z SLP179
Observed Flight Rules
Sep-21 @ 23:00 UTC (16 hours ago) Visual Flight Rules
Wind Visibility Clouds
110° at 8 knots 20 miles
Temperatures Readings
Current 9°C / 48°F
Dewpoint -8°C / 18°F
Humidity 29%
Altimeter 30.03" Hg
Pressure 1017.9 hPa
Elevation 98
METAR CZFN 212300Z 11008KT 20SM FEW200 09/M08 A3003 RMK CI1 9.4 / -6.2 / TR / LAST STFD OBS/NEXT 241500Z SLP179
Observed Flight Rules
Sep-21 @ 23:00 UTC
(16 hours ago)
VFR
Wind Visibility
110° at 8 knots 20 miles
Clouds
Temperature Dewpoint
9°C / 48°F -8°C / 18°F
Humidity Altimeter Pressure
29% 30.03" Hg 1017.9 hPa